Weather Data

Pearl Creek Farm: 8878 N Farm Road 75, Walnut Grove MO 65770

<== Previous Day (Monday 13 Jan 2014) | Next Day (Wednesday 15 Jan 2014) ==>

Summary Precipitation Data For Tuesday 14 January 2014

ElementValueUnits
Precipitation0"
Notes(none)
SourcePearl Creek Farm

Summary Temperature Data For Tuesday 14 January 2014

ElementValueUnits
High Temperature47 oF
Low Temperature29 oF
Average Temperature39 oF
High Humidity84 %
Low Humidity39 %
Average Humidity62 %
SourcePearl Creek Farm

Detail Temperature Data For Tuesday 14 January 2014

Date / TimeTemp (F)RH (%)Dew Pt (F)Report Date / TimeSource
2014-01-14 00:00:00 33 81 27.8 2014-02-09 14:43:36 Pearl Creek Farm
2014-01-14 00:30:00 34 80 28.3 2014-02-09 14:43:36 Pearl Creek Farm
2014-01-14 01:00:00 34 79 28.2 2014-02-09 14:43:36 Pearl Creek Farm
2014-01-14 01:30:00 32 80 26.6 2014-02-09 14:43:36 Pearl Creek Farm
2014-01-14 02:00:00 31 81 25.7 2014-02-09 14:43:36 Pearl Creek Farm
2014-01-14 02:30:00 30 84 25.6 2014-02-09 14:43:36 Pearl Creek Farm
2014-01-14 03:00:00 30 84 25.6 2014-02-09 14:43:36 Pearl Creek Farm
2014-01-14 03:30:00 31 83 26.3 2014-02-09 14:43:36 Pearl Creek Farm
2014-01-14 04:00:00 32 81 26.9 2014-02-09 14:43:36 Pearl Creek Farm
2014-01-14 04:30:00 35 76 28.2 2014-02-09 14:43:36 Pearl Creek Farm
2014-01-14 05:00:00 36 75 28.9 2014-02-09 14:43:36 Pearl Creek Farm
2014-01-14 05:30:00 37 72 28.7 2014-02-09 14:43:36 Pearl Creek Farm
2014-01-14 06:00:00 38 71 29.3 2014-02-09 14:43:36 Pearl Creek Farm
2014-01-14 06:30:00 39 69 29.7 2014-02-09 14:43:36 Pearl Creek Farm
2014-01-14 07:00:00 38 71 29.3 2014-02-09 14:43:36 Pearl Creek Farm
2014-01-14 07:30:00 39 64 27.7 2014-02-09 14:43:36 Pearl Creek Farm
2014-01-14 08:00:00 39 66 28.5 2014-02-09 14:43:36 Pearl Creek Farm
2014-01-14 08:30:00 39 68 29.4 2014-02-09 14:43:36 Pearl Creek Farm
2014-01-14 09:00:00 42 67 31.9 2014-02-09 14:43:36 Pearl Creek Farm
2014-01-14 09:30:00 44 68 34.0 2014-02-09 14:43:36 Pearl Creek Farm
2014-01-14 10:00:00 45 66 34.4 2014-02-09 14:43:36 Pearl Creek Farm
2014-01-14 10:30:00 46 65 34.9 2014-02-09 14:43:36 Pearl Creek Farm
2014-01-14 11:00:00 46 64 34.3 2014-02-09 14:43:36 Pearl Creek Farm
2014-01-14 11:30:00 47 62 34.5 2014-02-09 14:43:36 Pearl Creek Farm
2014-01-14 12:00:00 47 57 32.6 2014-02-09 14:43:36 Pearl Creek Farm
2014-01-14 12:30:00 47 58 33.0 2014-02-09 14:43:36 Pearl Creek Farm
2014-01-14 13:00:00 47 60 33.9 2014-02-09 14:43:36 Pearl Creek Farm
2014-01-14 13:30:00 47 56 32.1 2014-02-09 14:43:36 Pearl Creek Farm
2014-01-14 14:00:00 47 48 28.1 2014-02-09 14:43:36 Pearl Creek Farm
2014-01-14 14:30:00 47 47 27.6 2014-02-09 14:43:36 Pearl Creek Farm
2014-01-14 15:00:00 47 45 26.5 2014-02-09 14:43:36 Pearl Creek Farm
2014-01-14 15:30:00 46 45 25.6 2014-02-09 14:43:36 Pearl Creek Farm
2014-01-14 16:00:00 45 42 23.1 2014-02-09 14:43:36 Pearl Creek Farm
2014-01-14 16:30:00 44 41 21.9 2014-02-09 14:43:36 Pearl Creek Farm
2014-01-14 17:00:00 43 44 22.4 2014-02-09 14:43:36 Pearl Creek Farm
2014-01-14 17:30:00 42 39 18.6 2014-02-09 14:43:36 Pearl Creek Farm
2014-01-14 18:00:00 40 45 20.4 2014-02-09 14:43:36 Pearl Creek Farm
2014-01-14 18:30:00 38 47 19.4 2014-02-09 14:43:36 Pearl Creek Farm
2014-01-14 19:00:00 37 50 19.9 2014-02-09 14:43:36 Pearl Creek Farm
2014-01-14 19:30:00 36 50 19.2 2014-02-09 14:43:36 Pearl Creek Farm
2014-01-14 20:00:00 34 53 18.7 2014-02-09 14:43:36 Pearl Creek Farm
2014-01-14 20:30:00 34 52 18.0 2014-02-09 14:43:36 Pearl Creek Farm
2014-01-14 21:00:00 34 51 17.8 2014-02-09 14:43:36 Pearl Creek Farm
2014-01-14 21:30:00 34 52 18.3 2014-02-09 14:43:36 Pearl Creek Farm
2014-01-14 22:00:00 32 54 17.3 2014-02-09 14:43:36 Pearl Creek Farm
2014-01-14 22:30:00 31 60 18.6 2014-02-09 14:43:36 Pearl Creek Farm
2014-01-14 23:00:00 30 62 18.4 2014-02-09 14:43:36 Pearl Creek Farm
2014-01-14 23:30:00 29 61 17.3 2014-02-09 14:43:36 Pearl Creek Farm

A total of 48 rows are displayed.